Carter Lake, IA

7:23 AM CDT on September 04, 2015 (GMT -0500)
CarterLake.org | | Change Station
CLOSE
Current Station
Personal Weather Station
Location: Carter Lake, IA
Elevation: 980 ft
Nearby Weather Stations

Elev 980 ft 41.29 °N, 95.92 °W | Updated 14 seconds ago

Mostly Cloudy
Mostly Cloudy
73.5 °F
Feels Like 74 °F
N
1.2
Wind Variable Wind from SE
Gusts 2.3 mph

Today
High -- | Low -- °F
--% Chance of Precip.
Yesterday
High -- | Low -- °F
Precip. -- in
6:52 AM 7:51 PM
Waning Gibbous, 60% visible
Pressure 29.88 in
Visibility 10.0 miles
Clouds Mostly Cloudy 12000 ft
Mostly Cloudy 25000 ft
Heat Index 74 °F
Dew Point 67 °F
Humidity 81%
Rainfall 0.00 in
Snow Depth Not available.
UV 0 out of 12
Pollen 11.30 out of 12
Air Quality Not available.
Flu Activity Not available.
METAR KOMA 041152Z 16009KT 10SM BKN120 BKN250 23/20 A2991 RMK AO2 SLP118 T02330200 10261 20233 53016
Pressure 29.88 in
Visibility 10.0 miles
Clouds Mostly Cloudy 12000 ft
Mostly Cloudy 25000 ft
Heat Index 74 °F
Dew Point 67 °F
Humidity 81%
Rainfall 0.00 in
Snow Depth Not available.
UV 0 out of 12
Pollen 11.30 out of 12
Air Quality Not available.
Flu Activity Not available.
METAR KOMA 041152Z 16009KT 10SM BKN120 BKN250 23/20 A2991 RMK AO2 SLP118 T02330200 10261 20233 53016

10-Day Weather Forecast

×

Almanac

Astronomy

Sep. 04, 2015 Rise Set
Actual Time
Civil Twilight
Nautical Twilight
Astronomical Twilight
Moon
Length of Visible Light
Length of Day
Tomorrow will be .
, % of the Moon is Illuminated

Today's Extremes

State Highs State Lows

Community

WunderPhotos

Upload Photos

1,852,160 photos uploaded!

WunderBlogs® & News

Nearby

Air Quality

  Air Quality AQ Index Pollutant
Not available.

Snow Depth

Station Depth Elevation

Earthquake Activity

City Distance Mag. Time & Date
Minimum magnitude displayed is 2.5.

Coastal Water Temperatures

Place Temperature

Stations

Nearby Weather Stations

Station Location Temp. Windchill Dew Point Humidity Wind Precip. Elev Updated Type